Pineville, MO

10:43 PM CDT on July 27, 2016 (GMT -0500)
Kincardine Dr | | Change Station
Active Advisory: Areal Flood Advisory Active Notice: Local Storm Report

Elev 1158 ft 36.47 °N, 94.33 °W | Updated 9 minutes ago

Clear
Clear
76.1 °F
Feels Like 77 °F
N
0.6
Wind Variable Wind from West
Gusts 2.5 mph

Today
High -- | Low -- °F
--% Chance of Precip.
Yesterday
High -- | Low -- °F
Precip. -- in
Pressure 29.97 in
Visibility 10.0 miles
Clouds Clear
Heat Index 77 °F
Dew Point 71 °F
Humidity 85%
Rainfall 1.37 in
Snow Depth Not available.
6:20 AM 8:27 PM
Last Quarter, 36% visible
METAR KVBT 280335Z AUTO 00000KT 10SM CLR 22/19 A2997 RMK AO1
Pressure 29.97 in
Visibility 10.0 miles
Clouds Clear
Heat Index 77 °F
Dew Point 71 °F
Humidity 85%
Rainfall 1.37 in
Snow Depth Not available.
6:20 AM 8:27 PM
Last Quarter, 36% visible
METAR KVBT 280335Z AUTO 00000KT 10SM CLR 22/19 A2997 RMK AO1

10-Day Weather Forecast

Almanac

Astronomy

Jul. 27, 2016 Rise Set
Actual Time
Civil Twilight
Nautical Twilight
Astronomical Twilight
Moon
Length of Visible Light
Length of Day
Tomorrow will be .
, % of the Moon is Illuminated

Today's Extremes

State Highs State Lows

Community

WunderPhotos

Upload Photos

1,928,037 photos uploaded!

WunderBlog® & News

Nearby

Air Quality

  Air Quality AQ Index Pollutant
Not available.

Snow Depth

Station Depth Elevation

Earthquake Activity

City Distance Mag. Time & Date
Minimum magnitude displayed is 2.5.

Coastal Water Temperatures

Place Temperature

Stations

Nearby Weather Stations

Station Location Temp. Windchill Dew Point Humidity Wind Precip. Elev Updated Type
                   

Watches & Warnings

Areal Flood Advisory
Issued: 8:55 PM CDT Jul. 27, 2016 – National Weather Service

... The Flood Advisory remains in effect until 1115 PM CDT for
McDonald and southwestern Barry counties...

At 850 PM CDT... the heavy rainfall has ended across the area and no
additional rainfall is expected for the rest of this evening. Run
off from the heavy rainfall that occurred earlier this evening will
continue a minor flooding risk through the rest of this
evening... even though the heavy rainfall has ended. River gauges
indicated that rises on area streams... creeks and rivers were
occurring especially along the little Sugar Creek.

Creeks... streams... and low water crossings will be especially
susceptible to the dangers of flooding.

This advisory includes but is not limited to the following low water
crossings...
Highway 90 at little Sugar Creek near Jane.

Precautionary/preparedness actions...

Be especially cautious at night when it is harder to recognize the
dangers of flooding.


Lat... Lon 3650 9444 3676 9444 3675 9388 3650 9387


Wise